Time;durP1;ratioP1;P1;durP2;ratioP2;P2;SDS_P1;SDS_P2;PMS_P1;PMS_P2;Temp;Humidity;BMP_temperature;BMP_pressure;BME280_temperature;BME280_humidity;BME280_pressure;Samples;Min_cycle;Max_cycle;Signal;HPM_P1;HPM_P2
2023/11/02 00:01:54;;;;;;;16.35;8.57;;;;;;;;;;10256854;28;20023;-69
2023/11/02 00:06:57;;;;;;;12.90;8.23;;;;;;;;;;10261553;28;20361;-68
2023/11/02 00:12:01;;;;;;;14.60;8.18;;;;;;;;;;10260450;28;20034;-68
2023/11/02 00:17:06;;;;;;;17.75;9.00;;;;;;;;;;10261190;28;20038;-68
2023/11/02 00:22:07;;;;;;;15.13;8.55;;;;;;;;;;10261178;28;20206;-68
2023/11/02 00:27:07;;;;;;;19.30;9.55;;;;;;;;;;10261130;28;20367;-68
2023/11/02 00:32:08;;;;;;;22.98;11.05;;;;;;;;;;10261261;28;20027;-69
2023/11/02 00:37:08;;;;;;;15.13;9.00;;;;;;;;;;10260505;28;20118;-68
2023/11/02 00:42:09;;;;;;;22.13;9.40;;;;;;;;;;10260531;28;20246;-68
2023/11/02 00:47:09;;;;;;;17.30;9.68;;;;;;;;;;10259498;28;20073;-68
2023/11/02 00:52:10;;;;;;;18.58;10.55;;;;;;;;;;10259886;28;20023;-68
2023/11/02 00:57:11;;;;;;;18.02;10.55;;;;;;;;;;10259940;28;20086;-68
2023/11/02 01:02:13;;;;;;;19.30;11.00;;;;;;;;;;10259264;28;20031;-68
2023/11/02 01:07:14;;;;;;;25.77;10.27;;;;;;;;;;10259254;28;20023;-68
2023/11/02 01:12:22;;;;;;;15.75;9.88;;;;;;;;;;10259467;28;20031;-68
2023/11/02 01:17:29;;;;;;;26.20;11.23;;;;;;;;;;10258953;28;20029;-67
2023/11/02 01:22:29;;;;;;;21.67;10.40;;;;;;;;;;10259872;28;20174;-68
2023/11/02 01:27:31;;;;;;;18.58;11.02;;;;;;;;;;10259001;28;20030;-68
2023/11/02 01:32:32;;;;;;;24.23;11.25;;;;;;;;;;10258515;28;20081;-68
2023/11/02 01:37:32;;;;;;;22.45;12.82;;;;;;;;;;10258375;28;20066;-68
2023/11/02 01:42:39;;;;;;;25.38;11.32;;;;;;;;;;10258012;28;20019;-68
2023/11/02 01:47:59;;;;;;;20.60;11.43;;;;;;;;;;10257178;28;20019;-68
2023/11/02 01:53:06;;;;;;;27.75;13.18;;;;;;;;;;10260460;28;20031;-68
2023/11/02 01:58:06;;;;;;;21.42;11.77;;;;;;;;;;10255932;28;20090;-69
2023/11/02 02:03:32;;;;;;;20.40;10.97;;;;;;;;;;10267649;28;20364;-68
2023/11/02 02:08:41;;;;;;;19.42;11.23;;;;;;;;;;10254581;28;20450;-68
2023/11/02 02:14:09;;;;;;;24.75;11.45;;;;;;;;;;10267064;28;20019;-68
2023/11/02 02:19:28;;;;;;;20.05;10.65;;;;;;;;;;10245679;28;20296;-68
2023/11/02 02:24:51;;;;;;;20.58;11.40;;;;;;;;;;10256813;28;20082;-68
2023/11/02 02:30:03;;;;;;;18.77;9.90;;;;;;;;;;10251140;28;20313;-68
2023/11/02 02:35:12;;;;;;;20.58;11.25;;;;;;;;;;10266310;28;20046;-67
2023/11/02 02:40:17;;;;;;;20.27;10.63;;;;;;;;;;10255805;28;20043;-69
2023/11/02 02:45:17;;;;;;;16.17;10.02;;;;;;;;;;10244134;28;20030;-69
2023/11/02 02:50:20;;;;;;;20.37;10.17;;;;;;;;;;10257091;28;20309;-68
2023/11/02 02:55:21;;;;;;;17.33;8.80;;;;;;;;;;10265231;28;20217;-67
2023/11/02 03:00:22;;;;;;;18.50;8.68;;;;;;;;;;10267863;28;20035;-68
2023/11/02 03:05:24;;;;;;;14.48;8.88;;;;;;;;;;10266046;28;20082;-68
2023/11/02 03:10:24;;;;;;;21.15;10.02;;;;;;;;;;10279241;28;20042;-67
2023/11/02 03:15:28;;;;;;;20.45;9.95;;;;;;;;;;10276075;28;20023;-68
2023/11/02 03:20:28;;;;;;;18.90;10.55;;;;;;;;;;10270107;28;20035;-68
2023/11/02 03:25:36;;;;;;;22.75;10.00;;;;;;;;;;10268992;28;20019;-68
2023/11/02 03:30:37;;;;;;;25.92;11.27;;;;;;;;;;10258912;28;20019;-68
2023/11/02 03:35:49;;;;;;;17.95;10.38;;;;;;;;;;10280865;28;20047;-67
2023/11/02 03:41:00;;;;;;;24.42;13.73;;;;;;;;;;10275571;28;20081;-69
2023/11/02 03:46:04;;;;;;;20.38;12.07;;;;;;;;;;10266716;28;20019;-68
2023/11/02 03:51:07;;;;;;;21.48;11.48;;;;;;;;;;10279093;28;20409;-68
2023/11/02 03:56:40;;;;;;;30.20;13.20;;;;;;;;;;10267653;28;20023;-68
2023/11/02 04:02:01;;;;;;;32.47;13.60;;;;;;;;;;10256428;28;20051;-69
2023/11/02 04:07:11;;;;;;;30.27;14.43;;;;;;;;;;10267695;28;20027;-69
2023/11/02 04:12:27;;;;;;;27.08;14.30;;;;;;;;;;10204571;29;20305;-68
2023/11/02 04:17:28;;;;;;;26.70;13.35;;;;;;;;;;10210040;28;20028;-68
2023/11/02 04:22:28;;;;;;;31.45;15.38;;;;;;;;;;10213650;28;20020;-67
2023/11/02 04:27:29;;;;;;;23.67;13.27;;;;;;;;;;10220971;28;20015;-67
2023/11/02 04:32:30;;;;;;;30.83;14.43;;;;;;;;;;10219370;29;20314;-68
2023/11/02 04:37:31;;;;;;;32.72;16.92;;;;;;;;;;10218187;29;20312;-68
2023/11/02 04:42:31;;;;;;;27.42;15.90;;;;;;;;;;10218359;29;20213;-67
2023/11/02 04:47:31;;;;;;;31.20;15.13;;;;;;;;;;10219138;28;20022;-67
2023/11/02 04:52:35;;;;;;;38.10;17.40;;;;;;;;;;10222527;29;20383;-68
2023/11/02 04:57:35;;;;;;;30.95;16.40;;;;;;;;;;10246489;29;20289;-67
2023/11/02 05:02:36;;;;;;;26.73;16.65;;;;;;;;;;10220581;29;20063;-67
2023/11/02 05:07:36;;;;;;;25.77;15.52;;;;;;;;;;10219370;29;20552;-67
2023/11/02 05:12:36;;;;;;;36.08;18.75;;;;;;;;;;10216810;29;20019;-67
2023/11/02 05:17:37;;;;;;;38.25;18.08;;;;;;;;;;10216485;29;20016;-67
2023/11/02 05:22:37;;;;;;;37.23;19.07;;;;;;;;;;10218329;29;20229;-67
2023/11/02 05:27:37;;;;;;;34.67;16.07;;;;;;;;;;10218530;29;20203;-67
2023/11/02 05:32:38;;;;;;;34.13;17.48;;;;;;;;;;10218641;29;20035;-68
2023/11/02 05:37:38;;;;;;;45.47;20.67;;;;;;;;;;10219115;29;20028;-67
2023/11/02 05:42:39;;;;;;;48.42;22.92;;;;;;;;;;10218618;29;20016;-67
2023/11/02 05:47:39;;;;;;;50.83;25.50;;;;;;;;;;10215788;29;20194;-68
2023/11/02 05:52:39;;;;;;;40.92;22.23;;;;;;;;;;10215174;29;20337;-68
2023/11/02 05:57:40;;;;;;;43.08;20.08;;;;;;;;;;10215601;29;20034;-68
2023/11/02 06:02:41;;;;;;;40.28;22.08;;;;;;;;;;10214885;29;20213;-69
2023/11/02 06:07:41;;;;;;;34.95;19.55;;;;;;;;;;10214734;29;20050;-68
2023/11/02 06:12:41;;;;;;;47.10;21.52;;;;;;;;;;10217018;29;20044;-69
2023/11/02 06:17:41;;;;;;;39.03;21.73;;;;;;;;;;10217498;29;20028;-68
2023/11/02 06:22:42;;;;;;;34.80;18.60;;;;;;;;;;10217008;29;20034;-69
2023/11/02 06:27:42;;;;;;;34.47;18.33;;;;;;;;;;10216884;29;20365;-68
2023/11/02 06:32:43;;;;;;;34.28;17.52;;;;;;;;;;10216651;29;20282;-70
2023/11/02 06:37:59;;;;;;;28.25;14.98;;;;;;;;;;10216614;29;20039;-68
2023/11/02 06:42:59;;;;;;;28.73;14.73;;;;;;;;;;10216483;29;20028;-68
2023/11/02 06:48:01;;;;;;;27.95;15.05;;;;;;;;;;10215976;29;20043;-68
2023/11/02 06:53:02;;;;;;;32.33;14.13;;;;;;;;;;10216319;29;20024;-68
2023/11/02 06:58:02;;;;;;;26.33;14.75;;;;;;;;;;10216256;29;20687;-68
2023/11/02 07:03:03;;;;;;;25.83;14.50;;;;;;;;;;10217183;29;20023;-68
2023/11/02 07:08:04;;;;;;;24.30;14.50;;;;;;;;;;10216341;29;20062;-68
2023/11/02 07:13:05;;;;;;;30.10;16.02;;;;;;;;;;10217295;29;20336;-67
2023/11/02 07:18:05;;;;;;;25.30;14.20;;;;;;;;;;10215345;28;20049;-68
2023/11/02 07:23:05;;;;;;;29.40;14.23;;;;;;;;;;10215805;29;20039;-68
2023/11/02 07:28:05;;;;;;;26.52;14.80;;;;;;;;;;10215748;29;20309;-68
2023/11/02 07:33:07;;;;;;;27.53;13.87;;;;;;;;;;10216752;29;20534;-68
2023/11/02 07:38:07;;;;;;;31.50;15.23;;;;;;;;;;10237810;28;20291;-68
2023/11/02 07:43:07;;;;;;;33.33;16.80;;;;;;;;;;10215726;29;20019;-67
2023/11/02 07:48:07;;;;;;;26.83;14.85;;;;;;;;;;10216394;29;20031;-68
2023/11/02 07:53:08;;;;;;;27.10;14.77;;;;;;;;;;10215898;29;20036;-69
2023/11/02 07:58:08;;;;;;;28.43;15.80;;;;;;;;;;10220915;29;20313;-69
2023/11/02 08:03:08;;;;;;;30.67;14.93;;;;;;;;;;10223009;29;20027;-67
2023/11/02 08:08:09;;;;;;;35.63;16.10;;;;;;;;;;10222264;28;20338;-69
2023/11/02 08:13:09;;;;;;;34.42;17.90;;;;;;;;;;10222057;29;20090;-70
2023/11/02 08:18:09;;;;;;;34.45;15.70;;;;;;;;;;10221768;29;20039;-69
2023/11/02 08:23:09;;;;;;;31.80;14.88;;;;;;;;;;10220569;28;20317;-68
2023/11/02 08:28:10;;;;;;;31.05;15.43;;;;;;;;;;10221321;29;20108;-68
2023/11/02 08:33:10;;;;;;;24.50;13.25;;;;;;;;;;10221773;29;20067;-69
2023/11/02 08:38:11;;;;;;;23.25;13.52;;;;;;;;;;10221194;29;20042;-68
2023/11/02 08:43:12;;;;;;;23.50;13.05;;;;;;;;;;10220164;28;20032;-68
2023/11/02 08:48:13;;;;;;;18.10;10.30;;;;;;;;;;10220831;29;20046;-67
2023/11/02 08:53:13;;;;;;;19.88;11.90;;;;;;;;;;10219474;28;20024;-68
2023/11/02 08:58:13;;;;;;;18.47;10.03;;;;;;;;;;10219106;28;20238;-68
2023/11/02 09:03:14;;;;;;;23.33;10.73;;;;;;;;;;10219251;28;20020;-68
2023/11/02 09:08:14;;;;;;;18.10;9.15;;;;;;;;;;10219745;29;20363;-68
2023/11/02 09:13:15;;;;;;;33.35;13.65;;;;;;;;;;10219617;29;20290;-68
2023/11/02 09:18:16;;;;;;;24.48;11.40;;;;;;;;;;10214778;29;20031;-68
2023/11/02 09:23:16;;;;;;;17.90;11.13;;;;;;;;;;10216051;29;20225;-70
2023/11/02 09:28:16;;;;;;;20.95;9.98;;;;;;;;;;10214641;29;20035;-69
2023/11/02 09:33:18;;;;;;;21.02;10.60;;;;;;;;;;10213645;29;20051;-69
2023/11/02 09:38:19;;;;;;;23.33;12.60;;;;;;;;;;10222049;28;20043;-67
2023/11/02 09:43:20;;;;;;;17.05;9.85;;;;;;;;;;10213002;29;20034;-68
2023/11/02 09:48:20;;;;;;;18.17;10.52;;;;;;;;;;10212657;29;20126;-68
2023/11/02 09:53:21;;;;;;;19.02;10.20;;;;;;;;;;10214039;29;20098;-69
2023/11/02 09:58:22;;;;;;;18.08;10.10;;;;;;;;;;10213494;29;20288;-68
2023/11/02 10:03:22;;;;;;;22.40;11.27;;;;;;;;;;10213426;29;20539;-69
2023/11/02 10:08:23;;;;;;;22.20;10.35;;;;;;;;;;10214250;29;20028;-67
2023/11/02 10:13:23;;;;;;;18.58;10.40;;;;;;;;;;10213347;29;20313;-68
2023/11/02 10:18:23;;;;;;;16.48;9.70;;;;;;;;;;10212747;29;20464;-68
2023/11/02 10:23:23;;;;;;;18.67;9.30;;;;;;;;;;10222650;29;20038;-69
2023/11/02 10:28:24;;;;;;;19.05;9.98;;;;;;;;;;10220963;29;20107;-68
2023/11/02 10:33:29;;;;;;;18.90;10.98;;;;;;;;;;10212169;29;20055;-67
2023/11/02 10:38:31;;;;;;;18.30;10.27;;;;;;;;;;10213801;29;20056;-68
2023/11/02 10:43:33;;;;;;;21.33;11.90;;;;;;;;;;10211917;29;20024;-67
2023/11/02 10:48:35;;;;;;;34.42;14.98;;;;;;;;;;10211994;29;20253;-67
2023/11/02 10:53:44;;;;;;;22.83;11.38;;;;;;;;;;10210576;28;20211;-67
2023/11/02 10:58:45;;;;;;;21.52;12.13;;;;;;;;;;10209260;29;20043;-67
2023/11/02 11:03:50;;;;;;;25.70;12.32;;;;;;;;;;10210637;29;20032;-68
2023/11/02 11:08:51;;;;;;;33.72;15.95;;;;;;;;;;10213539;29;20286;-69
2023/11/02 11:13:52;;;;;;;20.42;12.95;;;;;;;;;;10215927;29;20201;-68
2023/11/02 11:18:53;;;;;;;27.73;13.77;;;;;;;;;;10215431;28;20123;-68
2023/11/02 11:23:54;;;;;;;28.40;13.70;;;;;;;;;;10216743;29;20024;-68
2023/11/02 11:28:55;;;;;;;25.23;12.47;;;;;;;;;;10215267;29;20360;-68
2023/11/02 11:33:56;;;;;;;28.45;13.63;;;;;;;;;;10220836;29;20078;-68
2023/11/02 11:38:56;;;;;;;27.07;13.40;;;;;;;;;;10223294;29;20038;-68
2023/11/02 11:44:03;;;;;;;22.73;13.32;;;;;;;;;;10222971;28;20063;-69
2023/11/02 11:49:05;;;;;;;23.63;13.00;;;;;;;;;;10222929;29;20036;-69
2023/11/02 11:54:14;;;;;;;24.63;12.77;;;;;;;;;;10223117;29;20265;-68
2023/11/02 11:59:14;;;;;;;21.25;11.75;;;;;;;;;;10222408;29;20028;-68
2023/11/02 12:04:33;;;;;;;36.70;12.70;;;;;;;;;;10222679;29;20267;-68
2023/11/02 12:09:34;;;;;;;31.60;15.25;;;;;;;;;;10221187;28;20035;-69
2023/11/02 12:14:34;;;;;;;37.08;17.10;;;;;;;;;;10222185;29;20055;-67
2023/11/02 12:19:44;;;;;;;36.03;17.55;;;;;;;;;;10221508;29;20095;-68
2023/11/02 12:24:53;;;;;;;26.67;13.73;;;;;;;;;;10221562;29;20035;-69
2023/11/02 12:29:58;;;;;;;24.73;14.27;;;;;;;;;;10221359;28;20078;-68
2023/11/02 12:34:59;;;;;;;26.50;14.18;;;;;;;;;;10221037;29;20151;-68
2023/11/02 12:40:00;;;;;;;29.80;14.05;;;;;;;;;;10221126;29;20043;-68
2023/11/02 12:45:00;;;;;;;22.65;13.38;;;;;;;;;;10184666;29;20059;-68
2023/11/02 12:50:01;;;;;;;27.50;14.30;;;;;;;;;;10216842;29;20027;-68
2023/11/02 12:55:01;;;;;;;25.40;12.68;;;;;;;;;;10220580;29;20314;-68
2023/11/02 13:00:04;;;;;;;31.88;15.20;;;;;;;;;;10220091;29;20028;-68
2023/11/02 13:05:05;;;;;;;31.70;15.65;;;;;;;;;;10219886;29;20298;-68
2023/11/02 13:10:13;;;;;;;33.50;15.27;;;;;;;;;;10219736;29;20522;-68
2023/11/02 13:15:16;;;;;;;32.58;14.30;;;;;;;;;;10219679;29;20028;-68
2023/11/02 13:20:18;;;;;;;41.35;18.10;;;;;;;;;;10219655;29;20035;-69
2023/11/02 13:25:21;;;;;;;31.95;16.30;;;;;;;;;;10219443;28;20031;-69
2023/11/02 13:30:22;;;;;;;25.48;13.82;;;;;;;;;;10219353;29;20093;-69
2023/11/02 13:35:22;;;;;;;31.88;14.73;;;;;;;;;;10219769;29;20054;-69
2023/11/02 13:40:26;;;;;;;28.25;14.43;;;;;;;;;;10218346;29;20262;-69
2023/11/02 13:45:27;;;;;;;41.13;17.40;;;;;;;;;;10218397;29;20028;-69
2023/11/02 13:50:27;;;;;;;33.90;12.85;;;;;;;;;;10218187;29;20030;-68
2023/11/02 13:55:28;;;;;;;22.95;12.85;;;;;;;;;;10217729;29;20026;-68
2023/11/02 14:00:29;;;;;;;24.50;12.43;;;;;;;;;;10218088;29;20050;-69
2023/11/02 14:05:29;;;;;;;27.98;13.55;;;;;;;;;;10217661;29;20179;-68
2023/11/02 14:10:29;;;;;;;30.57;15.03;;;;;;;;;;10217258;29;20135;-68
2023/11/02 14:15:31;;;;;;;30.43;13.17;;;;;;;;;;10215098;29;20024;-68
2023/11/02 14:20:31;;;;;;;24.90;13.05;;;;;;;;;;10196732;28;20210;-69
2023/11/02 14:25:31;;;;;;;57.97;15.50;;;;;;;;;;10201818;29;20034;-67
2023/11/02 14:30:31;;;;;;;35.42;15.35;;;;;;;;;;10200223;29;20150;-67
2023/11/02 14:35:32;;;;;;;34.80;14.48;;;;;;;;;;10206220;28;20094;-67
2023/11/02 14:40:33;;;;;;;28.15;14.93;;;;;;;;;;10205388;29;20039;-67
2023/11/02 14:45:33;;;;;;;28.50;13.70;;;;;;;;;;10201595;29;20255;-67
2023/11/02 14:50:34;;;;;;;31.63;14.80;;;;;;;;;;10206548;29;20032;-68
2023/11/02 14:55:37;;;;;;;28.73;13.05;;;;;;;;;;10205016;29;20352;-68
2023/11/02 15:00:37;;;;;;;27.63;13.70;;;;;;;;;;10207078;29;20218;-69
2023/11/02 15:05:37;;;;;;;33.22;14.15;;;;;;;;;;10204313;29;20032;-70
2023/11/02 15:10:37;;;;;;;34.78;14.32;;;;;;;;;;10202625;29;20035;-67
2023/11/02 15:15:38;;;;;;;33.43;14.33;;;;;;;;;;10203642;29;20032;-69
2023/11/02 15:20:39;;;;;;;43.50;14.90;;;;;;;;;;10215310;28;20031;-69
2023/11/02 15:25:39;;;;;;;28.20;15.82;;;;;;;;;;10201839;29;20075;-68
2023/11/02 15:30:39;;;;;;;49.90;16.17;;;;;;;;;;10196129;29;20024;-68
2023/11/02 15:35:39;;;;;;;30.92;15.32;;;;;;;;;;10208968;29;20051;-70
2023/11/02 15:40:40;;;;;;;25.75;14.32;;;;;;;;;;10214792;29;20218;-68
2023/11/02 15:45:40;;;;;;;31.83;15.70;;;;;;;;;;10215538;29;20028;-68
2023/11/02 15:50:40;;;;;;;32.55;15.70;;;;;;;;;;10214849;29;20027;-68
2023/11/02 15:55:41;;;;;;;34.65;17.25;;;;;;;;;;10214450;29;20337;-69
2023/11/02 16:00:41;;;;;;;32.03;17.08;;;;;;;;;;10214477;29;20035;-69
2023/11/02 16:05:42;;;;;;;31.25;15.93;;;;;;;;;;10210839;28;20030;-68
2023/11/02 16:10:42;;;;;;;41.17;16.60;;;;;;;;;;10210410;29;20059;-68
2023/11/02 16:15:42;;;;;;;38.67;17.58;;;;;;;;;;10209669;28;20344;-68
2023/11/02 16:20:43;;;;;;;39.30;17.65;;;;;;;;;;10219779;29;20272;-67
2023/11/02 16:25:43;;;;;;;51.45;18.35;;;;;;;;;;10221106;29;20241;-67
2023/11/02 16:30:43;;;;;;;43.08;20.90;;;;;;;;;;10220733;29;20035;-68
2023/11/02 16:35:43;;;;;;;41.97;19.10;;;;;;;;;;10218573;29;20047;-68
2023/11/02 16:40:44;;;;;;;48.50;18.63;;;;;;;;;;10220501;29;20031;-69
2023/11/02 16:45:46;;;;;;;50.63;22.42;;;;;;;;;;10219831;29;20034;-68
2023/11/02 16:50:47;;;;;;;43.78;19.48;;;;;;;;;;10219693;28;20027;-69
2023/11/02 16:55:47;;;;;;;48.00;20.50;;;;;;;;;;10218232;29;20368;-68
2023/11/02 17:00:48;;;;;;;48.92;17.75;;;;;;;;;;10217161;28;20725;-70
2023/11/02 17:05:48;;;;;;;39.22;19.83;;;;;;;;;;10203411;29;20297;-68
2023/11/02 17:10:49;;;;;;;44.47;19.10;;;;;;;;;;10208470;29;20357;-68
2023/11/02 17:15:49;;;;;;;42.97;18.73;;;;;;;;;;10215285;29;20141;-67
2023/11/02 17:20:51;;;;;;;51.27;20.33;;;;;;;;;;10220184;29;20039;-67
2023/11/02 17:25:52;;;;;;;53.05;23.20;;;;;;;;;;10212411;29;20114;-67
2023/11/02 17:30:53;;;;;;;53.47;21.13;;;;;;;;;;10200368;29;20027;-67
2023/11/02 17:35:53;;;;;;;55.20;24.30;;;;;;;;;;10204094;28;20565;-66
2023/11/02 17:40:53;;;;;;;38.30;19.33;;;;;;;;;;10196517;29;20032;-68
2023/11/02 17:45:54;;;;;;;33.17;19.57;;;;;;;;;;10207776;29;20032;-67
2023/11/02 17:50:54;;;;;;;44.92;19.05;;;;;;;;;;10211640;29;20027;-67
2023/11/02 17:55:54;;;;;;;38.10;19.87;;;;;;;;;;10206845;28;20023;-67
2023/11/02 18:00:56;;;;;;;40.65;18.55;;;;;;;;;;10209938;29;20024;-68
2023/11/02 18:05:56;;;;;;;41.47;20.48;;;;;;;;;;10201854;29;20351;-67
2023/11/02 18:10:57;;;;;;;33.40;18.48;;;;;;;;;;10203453;29;20024;-69
2023/11/02 18:15:57;;;;;;;43.92;21.17;;;;;;;;;;10206549;29;20058;-67
2023/11/02 18:20:57;;;;;;;46.10;22.40;;;;;;;;;;10206757;29;20032;-69
2023/11/02 18:25:58;;;;;;;31.52;16.40;;;;;;;;;;10205950;29;20059;-67
2023/11/02 18:31:00;;;;;;;30.30;13.65;;;;;;;;;;10211252;29;20094;-67
2023/11/02 18:36:00;;;;;;;29.88;15.43;;;;;;;;;;10209934;28;20047;-67
2023/11/02 18:41:01;;;;;;;43.20;20.30;;;;;;;;;;10208928;29;20044;-67
2023/11/02 18:46:01;;;;;;;38.20;18.27;;;;;;;;;;10208487;29;20103;-74
2023/11/02 18:51:03;;;;;;;42.85;19.77;;;;;;;;;;10206375;29;20740;-76
2023/11/02 18:56:04;;;;;;;37.88;17.10;;;;;;;;;;10206277;29;20245;-74
2023/11/02 19:01:04;;;;;;;46.38;21.98;;;;;;;;;;10206477;28;20059;-73
2023/11/02 19:06:04;;;;;;;49.83;21.58;;;;;;;;;;10207431;29;20042;-73
2023/11/02 19:11:06;;;;;;;36.83;18.60;;;;;;;;;;10206042;29;20035;-72
2023/11/02 19:16:07;;;;;;;34.67;18.40;;;;;;;;;;10216427;28;20349;-75
2023/11/02 19:21:08;;;;;;;41.25;21.02;;;;;;;;;;10207491;29;20302;-76
2023/11/02 19:26:22;;;;;;;43.45;19.83;;;;;;;;;;10205035;29;20109;-77
2023/11/02 19:31:23;;;;;;;48.45;18.17;;;;;;;;;;10203735;29;20093;-70
2023/11/02 19:36:23;;;;;;;31.77;18.05;;;;;;;;;;10205275;29;20048;-69
2023/11/02 19:41:25;;;;;;;37.90;18.30;;;;;;;;;;10206868;29;20024;-70
2023/11/02 19:46:26;;;;;;;34.05;18.38;;;;;;;;;;10217234;29;20032;-70
2023/11/02 19:51:27;;;;;;;39.42;16.88;;;;;;;;;;10209319;29;20322;-72
2023/11/02 19:56:27;;;;;;;32.22;14.55;;;;;;;;;;10231436;28;20063;-68
2023/11/02 20:01:28;;;;;;;33.60;17.58;;;;;;;;;;10212959;29;20051;-66
2023/11/02 20:06:29;;;;;;;33.92;17.83;;;;;;;;;;10213548;29;20452;-71
2023/11/02 20:11:29;;;;;;;31.05;14.52;;;;;;;;;;10212571;29;20019;-74
2023/11/02 20:16:30;;;;;;;30.02;15.60;;;;;;;;;;10207343;28;20309;-75
2023/11/02 20:21:33;;;;;;;31.13;14.73;;;;;;;;;;10209867;29;20032;-68
2023/11/02 20:26:34;;;;;;;26.25;14.45;;;;;;;;;;10208379;28;20035;-69
2023/11/02 20:31:34;;;;;;;31.75;14.40;;;;;;;;;;10209143;28;20031;-68
2023/11/02 20:36:34;;;;;;;25.42;13.73;;;;;;;;;;10207731;29;20242;-68
2023/11/02 20:41:34;;;;;;;37.97;17.05;;;;;;;;;;10209234;29;20031;-69
2023/11/02 20:46:38;;;;;;;37.22;19.38;;;;;;;;;;10211240;29;20020;-74
2023/11/02 20:51:39;;;;;;;32.97;17.17;;;;;;;;;;10210208;28;20225;-73
2023/11/02 20:56:40;;;;;;;32.65;16.35;;;;;;;;;;10210508;28;20040;-72
2023/11/02 21:01:42;;;;;;;33.97;16.92;;;;;;;;;;10210382;29;20532;-74
2023/11/02 21:06:42;;;;;;;34.97;17.45;;;;;;;;;;10210587;29;20027;-74
2023/11/02 21:11:43;;;;;;;40.97;19.45;;;;;;;;;;10209902;29;20047;-76
2023/11/02 21:16:43;;;;;;;42.65;18.80;;;;;;;;;;10209770;29;20028;-73
2023/11/02 21:21:44;;;;;;;49.83;19.57;;;;;;;;;;10209759;29;20083;-76
2023/11/02 21:26:47;;;;;;;50.28;20.55;;;;;;;;;;10209907;29;20203;-75
2023/11/02 21:31:48;;;;;;;50.80;21.80;;;;;;;;;;10215511;28;20031;-75
2023/11/02 21:36:48;;;;;;;39.67;19.38;;;;;;;;;;10208497;29;20250;-75
2023/11/02 21:41:48;;;;;;;49.75;23.05;;;;;;;;;;10210382;29;20035;-72
2023/11/02 21:46:48;;;;;;;55.15;24.95;;;;;;;;;;10209486;29;20213;-74
2023/11/02 21:51:49;;;;;;;46.05;23.17;;;;;;;;;;10207876;29;20052;-75
2023/11/02 21:56:49;;;;;;;46.05;24.10;;;;;;;;;;10208068;29;20024;-70
2023/11/02 22:01:50;;;;;;;53.92;24.38;;;;;;;;;;10209184;29;20334;-69
2023/11/02 22:06:50;;;;;;;46.95;24.63;;;;;;;;;;10204992;29;20019;-72
2023/11/02 22:11:53;;;;;;;56.65;24.60;;;;;;;;;;10208107;29;20258;-75
2023/11/02 22:16:53;;;;;;;59.80;23.58;;;;;;;;;;10207877;29;20027;-71
2023/11/02 22:21:53;;;;;;;45.60;23.38;;;;;;;;;;10207825;29;20046;-72
2023/11/02 22:26:54;;;;;;;50.05;22.67;;;;;;;;;;10206664;29;20414;-71
2023/11/02 22:31:54;;;;;;;47.78;25.20;;;;;;;;;;10208425;29;20027;-78
2023/11/02 22:36:56;;;;;;;49.40;24.55;;;;;;;;;;10222524;29;20329;-72
2023/11/02 22:41:56;;;;;;;57.05;26.00;;;;;;;;;;10232918;29;20090;-72
2023/11/02 22:46:57;;;;;;;52.67;26.17;;;;;;;;;;10229280;28;20014;-72
2023/11/02 22:51:57;;;;;;;53.60;27.30;;;;;;;;;;10245126;28;20332;-73
2023/11/02 22:56:59;;;;;;;57.28;26.60;;;;;;;;;;10237932;29;20027;-72
2023/11/02 23:02:02;;;;;;;58.22;28.08;;;;;;;;;;10239323;29;20318;-73
2023/11/02 23:07:04;;;;;;;53.97;25.50;;;;;;;;;;10226168;29;20023;-73
2023/11/02 23:12:04;;;;;;;59.70;29.73;;;;;;;;;;10223758;29;20107;-73
2023/11/02 23:17:04;;;;;;;61.50;28.10;;;;;;;;;;10238535;28;20018;-73
2023/11/02 23:22:05;;;;;;;55.85;26.52;;;;;;;;;;10226085;29;20255;-73
2023/11/02 23:27:05;;;;;;;54.13;25.93;;;;;;;;;;10247497;28;20094;-73
2023/11/02 23:32:05;;;;;;;58.58;26.45;;;;;;;;;;10232909;28;20225;-73
2023/11/02 23:37:07;;;;;;;67.57;26.55;;;;;;;;;;10242704;28;20063;-72
2023/11/02 23:42:07;;;;;;;52.45;26.05;;;;;;;;;;10243735;28;20055;-72
2023/11/02 23:47:09;;;;;;;51.90;26.43;;;;;;;;;;10228009;28;20020;-71
2023/11/02 23:52:10;;;;;;;54.38;26.98;;;;;;;;;;10234011;29;20596;-73
2023/11/02 23:57:10;;;;;;;58.80;26.07;;;;;;;;;;10242577;29;20238;-73
